createdAt,value
2019-03-06T00:00:33.461Z,1005.21
2019-03-06T00:01:35.625Z,1005.19
2019-03-06T00:02:33.424Z,1005.14
2019-03-06T00:03:33.408Z,1005.19
2019-03-06T00:04:33.406Z,1005.18
2019-03-06T00:05:33.393Z,1005.19
2019-03-06T00:06:33.402Z,1005.22
2019-03-06T00:07:33.367Z,1005.21
2019-03-06T00:08:33.350Z,1005.22
2019-03-06T00:09:33.335Z,1005.21
2019-03-06T00:10:33.337Z,1005.19
2019-03-06T00:11:33.339Z,1005.20
2019-03-06T00:12:33.370Z,1005.25
2019-03-06T00:13:33.304Z,1005.20
2019-03-06T00:14:33.290Z,1005.21
2019-03-06T00:15:33.278Z,1005.21
2019-03-06T00:16:33.264Z,1005.21
2019-03-06T00:17:33.279Z,1005.18
2019-03-06T00:18:33.249Z,1005.18
2019-03-06T00:19:33.236Z,1005.21
2019-03-06T00:20:33.222Z,1005.22
2019-03-06T00:21:33.212Z,1005.17
2019-03-06T00:22:33.224Z,1005.17
2019-03-06T00:23:33.203Z,1005.18
2019-03-06T00:24:33.182Z,1005.19
2019-03-06T00:25:33.173Z,1005.21
2019-03-06T00:26:33.155Z,1005.16
2019-03-06T00:27:33.145Z,1005.19
2019-03-06T00:28:33.161Z,1005.20
2019-03-06T00:29:33.129Z,1005.22
2019-03-06T00:30:33.155Z,1005.21
2019-03-06T00:31:33.110Z,1005.21
2019-03-06T00:32:33.095Z,1005.26
2019-03-06T00:33:33.086Z,1005.23
2019-03-06T00:34:33.103Z,1005.24
2019-03-06T00:35:33.074Z,1005.30
2019-03-06T00:36:33.052Z,1005.33
2019-03-06T00:37:33.045Z,1005.30
2019-03-06T00:38:33.034Z,1005.29
2019-03-06T00:39:33.023Z,1005.32
2019-03-06T00:40:33.031Z,1005.40
2019-03-06T00:41:33.010Z,1005.41
2019-03-06T00:42:32.995Z,1005.41
2019-03-06T00:43:32.979Z,1005.43
2019-03-06T00:44:33.010Z,1005.45
2019-03-06T00:45:32.951Z,1005.46
2019-03-06T00:46:32.968Z,1005.44
2019-03-06T00:47:32.942Z,1005.48
2019-03-06T00:48:32.924Z,1005.44
2019-03-06T00:49:32.910Z,1005.42
2019-03-06T00:50:32.897Z,1005.43
2019-03-06T00:51:32.909Z,1005.44
2019-03-06T00:52:32.908Z,1005.44
2019-03-06T00:53:32.868Z,1005.46
2019-03-06T00:54:32.865Z,1005.44
2019-03-06T00:55:32.864Z,1005.43
2019-03-06T00:56:32.839Z,1005.43
2019-03-06T00:57:32.835Z,1005.43
2019-03-06T00:58:32.861Z,1005.43
2019-03-06T00:59:32.805Z,1005.43
2019-03-06T01:00:32.798Z,1005.38
2019-03-06T01:01:32.789Z,1005.33
2019-03-06T01:02:32.780Z,1005.36
2019-03-06T01:03:32.786Z,1005.29
2019-03-06T01:04:32.782Z,1005.35
2019-03-06T01:05:32.741Z,1005.36
2019-03-06T01:06:32.728Z,1005.36
2019-03-06T01:07:32.717Z,1005.41
2019-03-06T01:08:32.744Z,1005.39
2019-03-06T01:09:32.701Z,1005.44
2019-03-06T01:10:32.682Z,1005.39
2019-03-06T01:11:32.706Z,1005.44
2019-03-06T01:12:32.662Z,1005.41
2019-03-06T01:13:32.689Z,1005.41
2019-03-06T01:14:32.650Z,1005.46
2019-03-06T01:15:32.641Z,1005.45
2019-03-06T01:16:32.615Z,1005.44
2019-03-06T01:17:32.604Z,1005.42
2019-03-06T01:18:32.619Z,1005.38
2019-03-06T01:19:32.583Z,1005.44
2019-03-06T01:20:32.618Z,1005.46
2019-03-06T01:21:32.585Z,1005.43
2019-03-06T01:22:32.566Z,1005.42
2019-03-06T01:23:32.562Z,1005.45
2019-03-06T01:24:32.530Z,1005.43
2019-03-06T01:25:32.517Z,1005.48
2019-03-06T01:26:32.515Z,1005.46
2019-03-06T01:27:32.504Z,1005.44
2019-03-06T01:28:32.514Z,1005.39
2019-03-06T01:29:32.475Z,1005.43
2019-03-06T01:30:32.471Z,1005.45
2019-03-06T01:31:32.455Z,1005.42
2019-03-06T01:32:32.452Z,1005.41
2019-03-06T01:33:32.448Z,1005.42
2019-03-06T01:34:32.448Z,1005.38
2019-03-06T01:35:32.426Z,1005.37
2019-03-06T01:36:32.407Z,1005.32
2019-03-06T01:37:32.399Z,1005.34
2019-03-06T01:38:32.380Z,1005.34
2019-03-06T01:39:32.399Z,1005.35
2019-03-06T01:40:32.366Z,1005.36
2019-03-06T01:41:32.363Z,1005.39
2019-03-06T01:42:32.337Z,1005.36
2019-03-06T01:43:32.334Z,1005.38
2019-03-06T01:44:32.325Z,1005.35
2019-03-06T01:45:32.333Z,1005.31
2019-03-06T01:46:32.321Z,1005.36
2019-03-06T01:47:32.322Z,1005.40
2019-03-06T01:48:32.288Z,1005.38
2019-03-06T01:49:32.262Z,1005.35
2019-03-06T01:50:32.282Z,1005.37
2019-03-06T01:51:32.244Z,1005.30
2019-03-06T01:52:32.238Z,1005.36
2019-03-06T01:53:32.236Z,1005.27
2019-03-06T01:54:32.216Z,1005.25
2019-03-06T01:55:32.231Z,1005.23
2019-03-06T01:56:32.220Z,1005.23
2019-03-06T01:57:32.180Z,1005.26
2019-03-06T01:58:32.179Z,1005.29
2019-03-06T01:59:32.166Z,1005.29
2019-03-06T02:00:32.146Z,1005.23
2019-03-06T02:01:32.167Z,1005.22
2019-03-06T02:02:32.128Z,1005.24
2019-03-06T02:03:32.121Z,1005.26
2019-03-06T02:04:32.101Z,1005.24
2019-03-06T02:05:32.112Z,1005.22
2019-03-06T02:06:32.081Z,1005.22
2019-03-06T02:07:32.097Z,1005.26
2019-03-06T02:08:32.065Z,1005.19
2019-03-06T02:09:32.062Z,1005.19
2019-03-06T02:10:32.038Z,1005.24
2019-03-06T02:11:32.046Z,1005.20
2019-03-06T02:12:32.053Z,1005.18
2019-03-06T02:13:32.012Z,1005.18
2019-03-06T02:14:32.003Z,1005.25
2019-03-06T02:15:32.012Z,1005.20
2019-03-06T02:16:31.975Z,1005.18
2019-03-06T02:17:31.979Z,1005.22
2019-03-06T02:18:32.048Z,1005.17
2019-03-06T02:19:31.948Z,1005.17
2019-03-06T02:20:31.938Z,1005.13
2019-03-06T02:21:31.936Z,1005.14
2019-03-06T02:22:31.910Z,1005.14
2019-03-06T02:23:31.926Z,1005.18
2019-03-06T02:24:31.889Z,1005.16
2019-03-06T02:25:31.883Z,1005.16
2019-03-06T02:26:31.875Z,1005.12
2019-03-06T02:27:31.859Z,1005.11
2019-03-06T02:28:31.848Z,1005.08
2019-03-06T02:29:31.869Z,1005.04
2019-03-06T02:30:31.824Z,1005.06
2019-03-06T02:31:31.823Z,1005.02
2019-03-06T02:32:31.825Z,1005.01
2019-03-06T02:33:31.797Z,1004.98
2019-03-06T02:34:31.782Z,1004.94
2019-03-06T02:35:31.812Z,1004.90
2019-03-06T02:36:31.759Z,1004.91
2019-03-06T02:37:31.808Z,1004.91
2019-03-06T02:38:31.761Z,1004.90
2019-03-06T02:39:31.727Z,1004.95
2019-03-06T02:40:31.726Z,1004.87
2019-03-06T02:41:31.743Z,1004.90
2019-03-06T02:42:31.695Z,1004.93
2019-03-06T02:43:31.704Z,1004.95
2019-03-06T02:44:31.673Z,1004.97
2019-03-06T02:45:31.674Z,1004.98
2019-03-06T02:46:31.654Z,1004.93
2019-03-06T02:47:31.666Z,1004.87
2019-03-06T02:48:31.633Z,1004.86
2019-03-06T02:49:31.633Z,1004.87
2019-03-06T02:50:31.615Z,1004.87
2019-03-06T02:51:31.603Z,1004.84
2019-03-06T02:52:31.632Z,1004.84
2019-03-06T02:53:31.592Z,1004.86
2019-03-06T02:54:31.575Z,1004.83
2019-03-06T02:55:31.582Z,1004.80
2019-03-06T02:56:31.545Z,1004.84
2019-03-06T02:57:31.561Z,1004.83
2019-03-06T02:58:31.536Z,1004.72
2019-03-06T02:59:31.522Z,1004.75
2019-03-06T03:00:31.512Z,1004.73
2019-03-06T03:01:31.496Z,1004.75
2019-03-06T03:02:31.496Z,1004.77
2019-03-06T03:03:31.500Z,1004.68
2019-03-06T03:04:31.466Z,1004.73
2019-03-06T03:05:31.459Z,1004.81
2019-03-06T03:06:31.436Z,1004.76
2019-03-06T03:07:31.444Z,1004.81
2019-03-06T03:08:31.422Z,1004.76
2019-03-06T03:09:31.430Z,1004.80
2019-03-06T03:10:31.401Z,1004.88
2019-03-06T03:11:31.388Z,1004.90
2019-03-06T03:12:31.375Z,1004.93
2019-03-06T03:13:31.374Z,1004.93
2019-03-06T03:14:31.385Z,1004.88
2019-03-06T03:15:31.345Z,1004.92
2019-03-06T03:16:31.330Z,1004.91
2019-03-06T03:17:31.326Z,1004.80
2019-03-06T03:18:31.326Z,1004.90
2019-03-06T03:19:31.327Z,1004.92
2019-03-06T03:20:31.296Z,1004.91
2019-03-06T03:21:31.292Z,1004.89
2019-03-06T03:22:31.280Z,1004.89
2019-03-06T03:23:31.267Z,1004.85
2019-03-06T03:24:31.253Z,1004.83
2019-03-06T03:25:31.270Z,1004.85
2019-03-06T03:26:31.233Z,1004.75
2019-03-06T03:27:31.308Z,1004.71
2019-03-06T03:28:31.219Z,1004.73
2019-03-06T03:29:31.205Z,1004.72
2019-03-06T03:30:31.217Z,1004.73
2019-03-06T03:31:31.201Z,1004.71
2019-03-06T03:32:31.179Z,1004.69
2019-03-06T03:33:31.159Z,1004.67
2019-03-06T03:34:31.158Z,1004.64
2019-03-06T03:35:31.155Z,1004.64
2019-03-06T03:36:31.148Z,1004.62
2019-03-06T03:37:31.135Z,1004.67
2019-03-06T03:38:31.113Z,1004.65
2019-03-06T03:39:31.094Z,1004.63
2019-03-06T03:40:31.090Z,1004.66
2019-03-06T03:41:31.067Z,1004.65
2019-03-06T03:42:31.089Z,1004.72
2019-03-06T03:43:31.060Z,1004.72
2019-03-06T03:44:31.037Z,1004.67
2019-03-06T03:45:31.031Z,1004.69
2019-03-06T03:46:31.019Z,1004.72
2019-03-06T03:47:31.001Z,1004.64
2019-03-06T03:48:31.008Z,1004.62
2019-03-06T03:49:30.993Z,1004.72
2019-03-06T03:50:30.971Z,1004.66
2019-03-06T03:51:30.967Z,1004.62
2019-03-06T03:52:30.977Z,1004.55
2019-03-06T03:53:30.952Z,1004.50
2019-03-06T03:54:30.954Z,1004.51
2019-03-06T03:55:30.926Z,1004.46
2019-03-06T03:56:30.907Z,1004.47
2019-03-06T03:57:30.899Z,1004.46
2019-03-06T03:58:30.894Z,1004.48
2019-03-06T03:59:30.904Z,1004.51
2019-03-06T04:00:30.867Z,1004.43
2019-03-06T04:01:30.862Z,1004.49
2019-03-06T04:02:30.848Z,1004.45
2019-03-06T04:03:30.835Z,1004.48
2019-03-06T04:04:30.828Z,1004.43
2019-03-06T04:05:30.843Z,1004.47
2019-03-06T04:06:30.813Z,1004.52
2019-03-06T04:07:30.820Z,1004.53
2019-03-06T04:08:30.778Z,1004.46
2019-03-06T04:09:30.768Z,1004.47
2019-03-06T04:10:30.763Z,1004.45
2019-03-06T04:11:30.891Z,1004.48
2019-03-06T04:12:30.736Z,1004.46
2019-03-06T04:13:30.738Z,1004.44
2019-03-06T04:14:30.730Z,1004.42
2019-03-06T04:15:30.712Z,1004.40
2019-03-06T04:16:30.696Z,1004.41
2019-03-06T04:17:30.713Z,1004.43
2019-03-06T04:18:30.673Z,1004.41
2019-03-06T04:19:30.662Z,1004.40
2019-03-06T04:20:30.659Z,1004.38
2019-03-06T04:21:30.643Z,1004.38
2019-03-06T04:22:30.635Z,1004.41
2019-03-06T04:23:30.697Z,1004.43
2019-03-06T04:24:30.609Z,1004.43
2019-03-06T04:25:30.607Z,1004.43
2019-03-06T04:26:30.603Z,1004.44
2019-03-06T04:27:30.593Z,1004.43
2019-03-06T04:28:30.595Z,1004.43
2019-03-06T04:29:30.617Z,1004.42
2019-03-06T04:30:30.546Z,1004.39
2019-03-06T04:31:30.544Z,1004.41
2019-03-06T04:32:30.533Z,1004.37
2019-03-06T04:33:30.518Z,1004.41
2019-03-06T04:34:30.508Z,1004.37
2019-03-06T04:35:30.552Z,1004.37
2019-03-06T04:36:30.490Z,1004.34
2019-03-06T04:37:30.474Z,1004.34
2019-03-06T04:38:30.460Z,1004.33
2019-03-06T04:39:30.453Z,1004.32
2019-03-06T04:40:30.459Z,1004.36
2019-03-06T04:41:30.448Z,1004.36
2019-03-06T04:42:30.419Z,1004.39
2019-03-06T04:43:30.403Z,1004.37
2019-03-06T04:44:30.394Z,1004.37
2019-03-06T04:45:30.381Z,1004.39
2019-03-06T04:46:30.394Z,1004.38
2019-03-06T04:47:30.375Z,1004.36
2019-03-06T04:48:30.354Z,1004.36
2019-03-06T04:49:30.345Z,1004.36
2019-03-06T04:50:30.360Z,1004.32
2019-03-06T04:51:30.315Z,1004.32
2019-03-06T04:52:30.316Z,1004.30
2019-03-06T04:53:30.296Z,1004.32
2019-03-06T04:54:30.285Z,1004.33
2019-03-06T04:55:30.282Z,1004.35
2019-03-06T04:56:30.288Z,1004.36
2019-03-06T04:57:30.253Z,1004.39
2019-03-06T04:58:30.250Z,1004.33
2019-03-06T04:59:30.234Z,1004.34
2019-03-06T05:00:30.235Z,1004.33
2019-03-06T05:01:30.248Z,1004.34
2019-03-06T05:02:30.209Z,1004.36
2019-03-06T05:03:30.196Z,1004.41
2019-03-06T05:04:30.179Z,1004.39
2019-03-06T05:05:30.176Z,1004.39
2019-03-06T05:06:30.175Z,1004.40
2019-03-06T05:07:30.171Z,1004.34
2019-03-06T05:08:30.140Z,1004.37
2019-03-06T05:09:30.134Z,1004.41
2019-03-06T05:10:30.122Z,1004.38
2019-03-06T05:11:30.125Z,1004.38
2019-03-06T05:12:30.107Z,1004.40
2019-03-06T05:13:30.108Z,1004.41
2019-03-06T05:14:30.082Z,1004.37
2019-03-06T05:15:30.070Z,1004.34
2019-03-06T05:16:30.065Z,1004.34
2019-03-06T05:17:30.050Z,1004.32
2019-03-06T05:18:30.048Z,1004.28
2019-03-06T05:19:30.054Z,1004.27
2019-03-06T05:20:30.007Z,1004.24
2019-03-06T05:21:29.999Z,1004.21
2019-03-06T05:22:29.995Z,1004.22
2019-03-06T05:23:29.982Z,1004.27
2019-03-06T05:24:29.970Z,1004.22
2019-03-06T05:25:29.978Z,1004.23
2019-03-06T05:26:29.959Z,1004.26
2019-03-06T05:27:29.984Z,1004.22
2019-03-06T05:28:29.932Z,1004.17
2019-03-06T05:29:29.918Z,1004.22
2019-03-06T05:30:29.928Z,1004.26
2019-03-06T05:31:29.893Z,1004.22
2019-03-06T05:32:29.881Z,1004.25
2019-03-06T05:33:29.872Z,1004.26
2019-03-06T05:34:29.874Z,1004.25
2019-03-06T05:35:29.860Z,1004.18
2019-03-06T05:36:29.880Z,1004.17
2019-03-06T05:37:29.834Z,1004.09
2019-03-06T05:38:29.816Z,1004.10
2019-03-06T05:39:29.808Z,1004.14
2019-03-06T05:40:29.806Z,1004.08
2019-03-06T05:41:29.813Z,1004.06
2019-03-06T05:42:29.782Z,1004.02
2019-03-06T05:43:29.771Z,1004.01
2019-03-06T05:44:29.757Z,1004.01
2019-03-06T05:45:29.744Z,1003.99
2019-03-06T05:46:29.767Z,1004.00
2019-03-06T05:47:29.731Z,1004.01
2019-03-06T05:48:29.720Z,1004.01
2019-03-06T05:49:29.729Z,1003.99
2019-03-06T05:50:29.693Z,1003.96
2019-03-06T05:51:29.687Z,1003.93
2019-03-06T05:52:29.696Z,1003.93
2019-03-06T05:53:29.663Z,1003.92
2019-03-06T05:54:29.658Z,1003.90
2019-03-06T05:55:29.651Z,1003.87
2019-03-06T05:56:29.666Z,1003.82
2019-03-06T05:57:29.615Z,1003.84
2019-03-06T05:58:29.624Z,1003.83
2019-03-06T05:59:29.603Z,1003.80
2019-03-06T06:00:29.600Z,1003.75
2019-03-06T06:01:29.573Z,1003.74
2019-03-06T06:02:29.587Z,1003.77
2019-03-06T06:03:29.595Z,1003.72
2019-03-06T06:04:29.543Z,1003.75
2019-03-06T06:05:29.531Z,1003.74
2019-03-06T06:06:29.532Z,1003.76
2019-03-06T06:07:29.510Z,1003.75
2019-03-06T06:08:29.508Z,1003.72
2019-03-06T06:09:29.529Z,1003.70
2019-03-06T06:10:29.489Z,1003.67
2019-03-06T06:11:29.473Z,1003.69
2019-03-06T06:12:29.459Z,1003.70
2019-03-06T06:13:30.925Z,1003.66
2019-03-06T06:14:29.455Z,1003.62
2019-03-06T06:15:29.428Z,1003.58
2019-03-06T06:16:29.424Z,1003.65
2019-03-06T06:17:29.410Z,1003.64
2019-03-06T06:18:29.400Z,1003.65
2019-03-06T06:19:29.428Z,1003.63
2019-03-06T06:20:29.372Z,1003.57
2019-03-06T06:21:29.372Z,1003.56
2019-03-06T06:22:29.364Z,1003.56
2019-03-06T06:23:29.356Z,1003.56
2019-03-06T06:24:29.369Z,1003.57
2019-03-06T06:25:29.339Z,1003.54
2019-03-06T06:26:29.318Z,1003.53
2019-03-06T06:27:29.309Z,1003.57
2019-03-06T06:28:29.352Z,1003.55
2019-03-06T06:29:29.282Z,1003.52
2019-03-06T06:30:29.311Z,1003.54
2019-03-06T06:31:29.258Z,1003.52
2019-03-06T06:32:29.253Z,1003.51
2019-03-06T06:33:29.235Z,1003.50
2019-03-06T06:34:29.229Z,1003.52
2019-03-06T06:35:29.235Z,1003.53
2019-03-06T06:36:29.210Z,1003.52
2019-03-06T06:37:29.210Z,1003.54
2019-03-06T06:38:29.183Z,1003.52
2019-03-06T06:39:29.180Z,1003.53
2019-03-06T06:40:29.181Z,1003.42
2019-03-06T06:41:29.154Z,1003.42
2019-03-06T06:42:29.144Z,1003.44
2019-03-06T06:43:29.142Z,1003.43
2019-03-06T06:44:29.126Z,1003.42
2019-03-06T06:45:29.130Z,1003.36
2019-03-06T06:46:29.113Z,1003.34
2019-03-06T06:47:29.098Z,1003.30
2019-03-06T06:48:29.083Z,1003.33
2019-03-06T06:49:29.101Z,1003.35
2019-03-06T06:50:29.104Z,1003.38
2019-03-06T06:51:29.057Z,1003.35
2019-03-06T06:52:29.035Z,1003.37
2019-03-06T06:53:29.025Z,1003.43
2019-03-06T06:54:29.022Z,1003.41
2019-03-06T06:55:29.027Z,1003.41
2019-03-06T06:56:29.027Z,1003.41
2019-03-06T06:57:28.987Z,1003.42
2019-03-06T06:58:31.526Z,1003.38
2019-03-06T06:59:28.970Z,1003.39
2019-03-06T07:00:28.956Z,1003.37
2019-03-06T07:01:28.976Z,1003.35
2019-03-06T07:02:28.930Z,1003.33
2019-03-06T07:03:28.928Z,1003.36
2019-03-06T07:04:28.919Z,1003.34
2019-03-06T07:05:28.908Z,1003.33
2019-03-06T07:06:28.890Z,1003.35
2019-03-06T07:07:28.910Z,1003.36
2019-03-06T07:08:28.881Z,1003.35
2019-03-06T07:09:28.874Z,1003.34
2019-03-06T07:10:28.857Z,1003.35
2019-03-06T07:11:28.842Z,1003.33
2019-03-06T07:12:28.825Z,1003.33
2019-03-06T07:13:28.856Z,1003.30
2019-03-06T07:14:28.813Z,1003.30
2019-03-06T07:15:28.800Z,1003.27
2019-03-06T07:16:28.797Z,1003.28
2019-03-06T07:17:28.783Z,1003.27
2019-03-06T07:18:28.788Z,1003.36
2019-03-06T07:19:28.757Z,1003.33
2019-03-06T07:20:28.749Z,1003.34
2019-03-06T07:21:28.780Z,1003.34
2019-03-06T07:22:28.808Z,1003.36
2019-03-06T07:23:28.716Z,1003.28
2019-03-06T07:24:28.724Z,1003.29
2019-03-06T07:25:28.695Z,1003.31
2019-03-06T07:26:28.678Z,1003.29
2019-03-06T07:27:28.674Z,1003.24
2019-03-06T07:28:28.665Z,1003.23
2019-03-06T07:29:28.688Z,1003.22
2019-03-06T07:30:28.638Z,1003.20
2019-03-06T07:31:28.631Z,1003.18
2019-03-06T07:32:28.617Z,1003.13
2019-03-06T07:33:28.614Z,1003.12
2019-03-06T07:34:28.619Z,1003.14
2019-03-06T07:35:28.624Z,1003.10
2019-03-06T07:36:28.582Z,1003.08
2019-03-06T07:37:29.041Z,1003.02
2019-03-06T07:38:28.571Z,1003.04
2019-03-06T07:39:28.545Z,1003.05
2019-03-06T07:40:28.538Z,1003.02
2019-03-06T07:41:28.546Z,1003.03
2019-03-06T07:42:28.515Z,1003.03
2019-03-06T07:43:28.524Z,1003.02
2019-03-06T07:44:30.494Z,1003.02
2019-03-06T07:45:28.488Z,1003.00
2019-03-06T07:46:28.509Z,1002.98
2019-03-06T07:47:28.460Z,1003.02
2019-03-06T07:48:28.456Z,1002.94
2019-03-06T07:49:28.437Z,1002.93
2019-03-06T07:50:28.437Z,1002.86
2019-03-06T07:51:28.424Z,1002.84
2019-03-06T07:52:28.459Z,1002.82
2019-03-06T07:53:28.401Z,1002.82
2019-03-06T07:54:28.399Z,1002.73
2019-03-06T07:55:28.380Z,1002.78
2019-03-06T07:56:28.382Z,1002.70
2019-03-06T07:57:28.376Z,1002.69
2019-03-06T07:58:28.350Z,1002.69
2019-03-06T07:59:28.334Z,1002.70
2019-03-06T08:00:28.326Z,1002.66
2019-03-06T08:01:28.327Z,1002.64
2019-03-06T08:02:28.310Z,1002.66
2019-03-06T08:03:28.310Z,1002.69
2019-03-06T08:04:28.287Z,1002.70
2019-03-06T08:05:28.278Z,1002.69
2019-03-06T08:06:28.273Z,1002.66
2019-03-06T08:07:28.267Z,1002.65
2019-03-06T08:08:28.274Z,1002.63
2019-03-06T08:09:28.227Z,1002.67
2019-03-06T08:10:28.228Z,1002.68
2019-03-06T08:11:28.207Z,1002.65
2019-03-06T08:12:28.200Z,1002.66
2019-03-06T08:13:28.197Z,1002.64
2019-03-06T08:14:28.197Z,1002.64
2019-03-06T08:15:28.184Z,1002.58
2019-03-06T08:16:28.160Z,1002.59
2019-03-06T08:17:28.142Z,1002.59
2019-03-06T08:18:28.160Z,1002.57
2019-03-06T08:19:28.131Z,1002.59
2019-03-06T08:20:28.125Z,1002.61
2019-03-06T08:21:28.109Z,1002.59
2019-03-06T08:22:28.091Z,1002.54
2019-03-06T08:23:28.089Z,1002.51
2019-03-06T08:24:28.096Z,1002.52
2019-03-06T08:25:28.106Z,1002.45
2019-03-06T08:26:28.057Z,1002.48
2019-03-06T08:27:28.055Z,1002.48
2019-03-06T08:28:28.043Z,1002.48
2019-03-06T08:29:28.017Z,1002.50
2019-03-06T08:30:28.030Z,1002.51
2019-03-06T08:31:28.001Z,1002.47
2019-03-06T08:32:27.986Z,1002.53
2019-03-06T08:33:27.977Z,1002.50
2019-03-06T08:34:27.979Z,1002.44
2019-03-06T08:35:27.979Z,1002.45
2019-03-06T08:36:27.942Z,1002.43
2019-03-06T08:37:27.938Z,1002.47
2019-03-06T08:38:27.930Z,1002.39
2019-03-06T08:39:27.911Z,1002.40
2019-03-06T08:40:27.919Z,1002.37
2019-03-06T08:41:27.920Z,1002.32
2019-03-06T08:42:27.886Z,1002.32
2019-03-06T08:43:27.907Z,1002.35
2019-03-06T08:44:27.872Z,1002.36
2019-03-06T08:45:27.885Z,1002.35
2019-03-06T08:46:27.860Z,1002.39
2019-03-06T08:47:27.850Z,1002.32
2019-03-06T08:48:27.822Z,1002.33
2019-03-06T08:49:27.815Z,1002.34
2019-03-06T08:50:27.803Z,1002.32
2019-03-06T08:51:27.791Z,1002.32
2019-03-06T08:52:27.800Z,1002.25
2019-03-06T08:53:27.768Z,1002.24
2019-03-06T08:54:27.802Z,1002.29
2019-03-06T08:55:27.764Z,1002.24
2019-03-06T08:56:27.746Z,1002.27
2019-03-06T08:57:27.722Z,1002.20
2019-03-06T08:58:27.775Z,1002.27
2019-03-06T08:59:27.697Z,1002.18
2019-03-06T09:00:27.687Z,1002.23
2019-03-06T09:01:27.691Z,1002.24
2019-03-06T09:02:27.665Z,1002.22
2019-03-06T09:03:27.653Z,1002.18
2019-03-06T09:04:27.676Z,1002.17
2019-03-06T09:05:27.631Z,1002.08
2019-03-06T09:06:27.634Z,1002.11
2019-03-06T09:07:27.609Z,1002.09
2019-03-06T09:08:27.607Z,1002.12
2019-03-06T09:09:27.621Z,1002.09
2019-03-06T09:10:27.608Z,1002.12
2019-03-06T09:11:27.569Z,1002.16
2019-03-06T09:12:27.570Z,1002.18
2019-03-06T09:13:27.552Z,1002.15
2019-03-06T09:14:27.565Z,1002.10
2019-03-06T09:15:27.535Z,1002.05
2019-03-06T09:16:27.522Z,1002.01
2019-03-06T09:17:27.513Z,1001.89
2019-03-06T09:18:27.502Z,1001.91
2019-03-06T09:19:27.497Z,1001.92
2019-03-06T09:20:36.027Z,1001.93
2019-03-06T09:21:28.467Z,1001.94
2019-03-06T09:22:27.459Z,1001.95
2019-03-06T09:23:27.442Z,1001.90
2019-03-06T09:24:27.427Z,1001.93
2019-03-06T09:25:27.425Z,1001.87
2019-03-06T09:26:27.440Z,1001.82
2019-03-06T09:27:27.406Z,1001.85
2019-03-06T09:28:27.386Z,1001.75
2019-03-06T09:29:27.377Z,1001.75
2019-03-06T09:30:27.369Z,1001.71
2019-03-06T09:31:27.361Z,1001.73
2019-03-06T09:32:27.365Z,1001.72
2019-03-06T09:33:27.332Z,1001.65
2019-03-06T09:34:28.299Z,1001.59
2019-03-06T09:35:27.309Z,1001.62
2019-03-06T09:36:27.296Z,1001.60
2019-03-06T09:37:27.305Z,1001.52
2019-03-06T09:38:27.295Z,1001.60
2019-03-06T09:39:27.265Z,1001.56
2019-03-06T09:40:27.254Z,1001.54
2019-03-06T09:41:27.247Z,1001.53
2019-03-06T09:42:27.245Z,1001.47
2019-03-06T09:43:27.246Z,1001.45
2019-03-06T09:44:27.219Z,1001.38
2019-03-06T09:45:27.198Z,1001.35
2019-03-06T09:46:27.193Z,1001.31
2019-03-06T09:47:27.176Z,1001.31
2019-03-06T09:48:27.215Z,1001.27
2019-03-06T09:49:27.187Z,1001.26
2019-03-06T09:50:27.147Z,1001.23
2019-03-06T09:51:27.139Z,1001.20
2019-03-06T09:52:27.121Z,1001.08
2019-03-06T09:53:27.118Z,1001.07
2019-03-06T09:54:27.125Z,1001.10
2019-03-06T09:55:27.094Z,1001.14
2019-03-06T09:56:27.105Z,1001.15
2019-03-06T09:57:27.074Z,1001.15
2019-03-06T09:58:27.054Z,1001.06
2019-03-06T09:59:27.051Z,1001.07
2019-03-06T10:00:27.069Z,1001.10
2019-03-06T10:01:27.028Z,1001.18
2019-03-06T10:02:27.026Z,1001.17
2019-03-06T10:03:27.008Z,1001.16
2019-03-06T10:04:27.005Z,1001.12
2019-03-06T10:05:26.982Z,1001.03
2019-03-06T10:06:26.998Z,1001.06
2019-03-06T10:07:26.958Z,1001.06
2019-03-06T10:08:26.960Z,1001.08
2019-03-06T10:09:26.969Z,1001.09
2019-03-06T10:10:26.921Z,1001.10
2019-03-06T10:11:26.944Z,1001.13
2019-03-06T10:12:26.911Z,1001.11
2019-03-06T10:13:26.924Z,1001.17
2019-03-06T10:14:26.881Z,1001.18
2019-03-06T10:15:26.877Z,1001.16
2019-03-06T10:16:26.858Z,1001.17
2019-03-06T10:17:26.865Z,1001.16
2019-03-06T10:18:26.973Z,1001.13
2019-03-06T10:19:26.831Z,1001.03
2019-03-06T10:20:26.812Z,1001.07
2019-03-06T10:21:26.858Z,1001.04
2019-03-06T10:22:26.796Z,1001.00
2019-03-06T10:23:26.789Z,1000.96
2019-03-06T10:24:26.786Z,1000.89
2019-03-06T10:25:30.164Z,1000.90
2019-03-06T10:26:28.887Z,1000.89
2019-03-06T10:27:26.736Z,1000.88
2019-03-06T10:28:27.970Z,1000.87
2019-03-06T10:29:26.777Z,1000.85
2019-03-06T10:30:26.717Z,1000.82
2019-03-06T10:31:26.697Z,1000.78
2019-03-06T10:32:26.729Z,1000.78
2019-03-06T10:33:26.701Z,1000.75
2019-03-06T10:34:26.664Z,1000.75
2019-03-06T10:35:26.650Z,1000.75
2019-03-06T10:36:26.647Z,1000.70
2019-03-06T10:37:26.641Z,1000.72
2019-03-06T10:38:26.637Z,1000.71
2019-03-06T10:39:26.610Z,1000.69
2019-03-06T10:40:26.589Z,1000.70
2019-03-06T10:41:26.582Z,1000.72
2019-03-06T10:42:26.587Z,1000.66
2019-03-06T10:43:26.582Z,1000.61
2019-03-06T10:44:29.785Z,1000.59
2019-03-06T10:45:26.610Z,1000.56
2019-03-06T10:46:26.526Z,1000.63
2019-03-06T10:47:26.513Z,1000.60
2019-03-06T10:48:26.538Z,1000.64
2019-03-06T10:49:26.519Z,1000.58
2019-03-06T10:50:28.000Z,1000.51
2019-03-06T10:51:27.481Z,1000.52
2019-03-06T10:52:26.473Z,1000.52
2019-03-06T10:53:26.473Z,1000.58
2019-03-06T10:54:26.465Z,1000.54
2019-03-06T10:55:26.435Z,1000.49
2019-03-06T10:56:26.424Z,1000.50
2019-03-06T10:57:26.406Z,1000.54
2019-03-06T10:58:26.408Z,1000.45
2019-03-06T10:59:26.380Z,1000.36
2019-03-06T11:00:26.379Z,1000.40
2019-03-06T11:01:26.363Z,1000.36
2019-03-06T11:02:26.362Z,1000.31
2019-03-06T11:03:26.363Z,1000.26
2019-03-06T11:04:26.344Z,1000.32
2019-03-06T11:05:26.329Z,1000.28
2019-03-06T11:06:26.312Z,1000.29
2019-03-06T11:07:26.292Z,1000.30
2019-03-06T11:08:26.282Z,1000.31
2019-03-06T11:09:26.304Z,1000.28
2019-03-06T11:10:26.699Z,1000.21
2019-03-06T11:11:26.257Z,1000.18
2019-03-06T11:12:26.247Z,1000.11
2019-03-06T11:13:26.254Z,1000.17
2019-03-06T11:14:26.247Z,1000.10
2019-03-06T11:15:26.216Z,1000.07
2019-03-06T11:16:26.200Z,1000.00
2019-03-06T11:17:26.202Z,999.95
2019-03-06T11:18:26.207Z,999.93
2019-03-06T11:19:26.172Z,999.90
2019-03-06T11:20:26.158Z,999.91
2019-03-06T11:21:26.145Z,999.92
2019-03-06T11:22:26.142Z,999.88
2019-03-06T11:23:26.152Z,999.79
2019-03-06T11:24:26.113Z,999.79
2019-03-06T11:25:26.096Z,999.84
2019-03-06T11:26:26.087Z,999.75
2019-03-06T11:27:26.075Z,999.76
2019-03-06T11:28:26.073Z,999.72
2019-03-06T11:29:26.104Z,999.65
2019-03-06T11:30:26.058Z,999.64
2019-03-06T11:31:26.041Z,999.59
2019-03-06T11:32:26.020Z,999.60
2019-03-06T11:33:26.011Z,999.60
2019-03-06T11:34:26.021Z,999.49
2019-03-06T11:35:26.001Z,999.55
2019-03-06T11:36:25.981Z,999.46
2019-03-06T11:37:25.971Z,999.46
2019-03-06T11:38:25.955Z,999.44
2019-03-06T11:39:25.951Z,999.41
2019-03-06T11:40:25.964Z,999.41
2019-03-06T11:41:25.951Z,999.40
2019-03-06T11:42:25.922Z,999.39
2019-03-06T11:43:25.918Z,999.35
2019-03-06T11:44:25.897Z,999.38
2019-03-06T11:45:25.886Z,999.35
2019-03-06T11:46:25.905Z,999.33
2019-03-06T11:47:25.867Z,999.31
2019-03-06T11:48:25.862Z,999.23
2019-03-06T11:49:25.841Z,999.18
2019-03-06T11:50:25.827Z,999.21
2019-03-06T11:51:25.850Z,999.24
2019-03-06T11:52:25.813Z,999.17
2019-03-06T11:53:25.793Z,999.17
2019-03-06T11:54:25.814Z,999.09
2019-03-06T11:55:25.786Z,999.09
2019-03-06T11:56:25.772Z,999.07
2019-03-06T11:57:25.773Z,999.08
2019-03-06T11:58:25.749Z,999.02
2019-03-06T11:59:25.732Z,999.08
2019-03-06T12:00:25.725Z,999.08
2019-03-06T12:01:25.844Z,999.08
2019-03-06T12:02:25.712Z,999.04
2019-03-06T12:03:25.762Z,998.96
2019-03-06T12:04:25.682Z,998.97
2019-03-06T12:05:25.683Z,998.99
2019-03-06T12:06:25.699Z,998.93
2019-03-06T12:07:25.658Z,998.93